Time;durP1;ratioP1;P1;durP2;ratioP2;P2;SDS_P1;SDS_P2;PMS_P1;PMS_P2;Temp;Humidity;BMP_temperature;BMP_pressure;BME280_temperature;BME280_humidity;BME280_pressure;Samples;Min_cycle;Max_cycle;Signal;HPM_P1;HPM_P2
2023/10/02 00:00:18;;;;;;;8.40;4.80;;;23.60;48.70;;;;;;352446;28;948;-55
2023/10/02 00:00:30;;;;;;;8.70;4.82;;;23.60;48.70;;;;;;352352;28;1990;-54
2023/10/02 00:01:18;;;;;;;10.80;4.70;;;23.60;48.70;;;;;;349336;28;1167;-55
2023/10/02 00:01:33;;;;;;;6.82;4.20;;;23.60;48.80;;;;;;349456;28;1178;-53
2023/10/02 00:01:33;;;;;;;7.75;4.78;;;23.60;48.70;;;;;;352362;28;1070;-54
2023/10/02 00:01:47;;;;;;;7.18;4.40;;;23.60;48.80;;;;;;352403;28;1002;-54
2023/10/02 00:01:58;;;;;;;9.25;5.03;;;23.60;48.80;;;;;;352473;28;912;-54
2023/10/02 00:02:09;;;;;;;8.15;5.22;;;23.60;48.80;;;;;;352361;28;1003;-56
2023/10/02 00:02:51;;;;;;;10.52;5.28;;;23.60;48.80;;;;;;352317;28;1011;-53
2023/10/02 00:03:02;;;;;;;7.80;5.07;;;23.60;48.80;;;;;;352357;28;991;-55
2023/10/02 00:03:12;;;;;;;7.13;4.93;;;23.60;48.80;;;;;;352428;28;721;-56
2023/10/02 00:03:23;;;;;;;8.15;4.63;;;23.60;48.80;;;;;;352357;28;905;-53
2023/10/02 00:04:18;;;;;;;8.30;4.55;;;23.60;48.80;;;;;;349333;28;1219;-54
2023/10/02 00:04:23;;;;;;;9.18;4.90;;;23.60;48.80;;;;;;352493;28;1030;-55
2023/10/02 00:04:34;;;;;;;9.80;4.47;;;23.60;48.80;;;;;;351367;28;1478;-54
2023/10/02 00:04:45;;;;;;;8.98;4.63;;;23.50;48.80;;;;;;352442;28;1026;-55
2023/10/02 00:04:56;;;;;;;8.23;4.68;;;23.50;48.80;;;;;;352383;28;1046;-53
2023/10/02 00:05:07;;;;;;;7.55;4.60;;;23.50;48.80;;;;;;352403;28;1125;-56
2023/10/02 00:05:40;;;;;;;6.68;4.60;;;23.60;48.80;;;;;;352330;28;1090;-54
2023/10/02 00:05:51;;;;;;;8.85;4.38;;;23.50;48.80;;;;;;352146;28;1511;-54
2023/10/02 00:06:02;;;;;;;8.43;4.55;;;23.50;48.90;;;;;;352415;28;1003;-53
2023/10/02 00:06:16;;;;;;;7.70;4.67;;;23.50;48.90;;;;;;352362;28;904;-54
2023/10/02 00:06:26;;;;;;;7.97;4.22;;;23.50;48.90;;;;;;352364;28;1833;-54
2023/10/02 00:06:38;;;;;;;7.72;4.28;;;23.50;49.00;;;;;;352367;28;900;-54
2023/10/02 00:07:05;;;;;;;6.63;4.25;;;23.50;49.00;;;;;;352406;28;1015;-54
2023/10/02 00:07:22;;;;;;;7.35;4.35;;;23.50;49.00;;;;;;352385;28;1129;-54
2023/10/02 00:07:42;;;;;;;7.05;4.22;;;23.50;49.10;;;;;;352438;28;884;-55
2023/10/02 00:07:53;;;;;;;5.63;4.15;;;23.50;49.10;;;;;;352404;28;1217;-55
2023/10/02 00:08:04;;;;;;;6.55;4.13;;;23.50;49.10;;;;;;352315;28;1035;-55
2023/10/02 00:08:31;;;;;;;7.30;4.05;;;23.50;49.10;;;;;;352377;28;1078;-54
2023/10/02 00:08:42;;;;;;;5.55;4.45;;;23.50;49.10;;;;;;352368;28;913;-54
2023/10/02 00:08:53;;;;;;;6.28;4.53;;;23.40;49.10;;;;;;352369;28;1127;-54
2023/10/02 00:09:04;;;;;;;6.93;4.57;;;23.40;49.10;;;;;;352377;28;1070;-54
2023/10/02 00:09:15;;;;;;;6.88;4.60;;;23.40;49.10;;;;;;352371;28;1134;-55
2023/10/02 00:09:26;;;;;;;6.60;4.70;;;23.50;49.10;;;;;;352434;28;2218;-55
2023/10/02 00:09:37;;;;;;;6.88;4.60;;;23.40;49.10;;;;;;352348;28;1240;-56
2023/10/02 00:09:49;;;;;;;7.93;4.63;;;23.50;49.10;;;;;;352329;28;1022;-55
2023/10/02 00:10:00;;;;;;;8.50;4.55;;;23.40;49.10;;;;;;352509;28;987;-55
2023/10/02 00:10:16;;;;;;;8.93;4.90;;;23.40;49.10;;;;;;352436;28;1031;-54
2023/10/02 00:10:30;;;;;;;17.08;14.02;;;23.50;49.10;;;;;;352458;28;1183;-54
2023/10/02 00:10:41;;;;;;;22.27;19.92;;;23.40;49.10;;;;;;352449;28;1125;-54
2023/10/02 00:10:52;;;;;;;18.77;15.98;;;23.40;49.10;;;;;;352422;28;1094;-54
2023/10/02 00:11:45;;;;;;;7.82;4.90;;;23.40;49.10;;;;;;352263;28;1487;-55
2023/10/02 00:12:01;;;;;;;9.00;4.90;;;23.40;49.10;;;;;;352379;28;887;-55
2023/10/02 00:12:12;;;;;;;9.75;5.15;;;23.40;49.00;;;;;;352437;28;1066;-55
2023/10/02 00:12:26;;;;;;;9.40;5.05;;;23.40;49.00;;;;;;352415;28;1581;-54
2023/10/02 00:12:36;;;;;;;7.68;4.35;;;23.40;49.00;;;;;;352457;28;1015;-54
2023/10/02 00:12:58;;;;;;;8.60;4.20;;;23.40;49.00;;;;;;352329;28;1109;-54
2023/10/02 00:13:10;;;;;;;8.35;4.70;;;23.40;49.00;;;;;;352362;27;1217;-55
2023/10/02 00:13:21;;;;;;;7.88;4.70;;;23.40;49.10;;;;;;352441;28;1137;-56
2023/10/02 00:13:32;;;;;;;7.28;4.80;;;23.40;49.10;;;;;;352392;28;1058;-55
2023/10/02 00:13:43;;;;;;;6.13;4.70;;;23.40;49.10;;;;;;352291;28;1039;-54
2023/10/02 00:14:18;;;;;;;6.38;4.63;;;23.40;49.10;;;;;;352365;28;1083;-54
2023/10/02 00:14:34;;;;;;;7.88;4.65;;;23.40;49.10;;;;;;352200;28;1654;-54
2023/10/02 00:14:48;;;;;;;7.03;4.13;;;23.40;49.20;;;;;;352385;28;1051;-54
2023/10/02 00:15:12;;;;;;;6.47;4.28;;;23.40;49.20;;;;;;352430;28;893;-54
2023/10/02 00:15:22;;;;;;;6.50;4.88;;;23.40;49.20;;;;;;352381;28;1050;-54
2023/10/02 00:15:33;;;;;;;6.63;4.95;;;23.40;49.20;;;;;;352451;28;999;-54
2023/10/02 00:15:45;;;;;;;6.63;4.93;;;23.40;49.30;;;;;;352431;28;771;-54
2023/10/02 00:15:56;;;;;;;6.50;4.82;;;23.40;49.20;;;;;;352397;28;1026;-54
2023/10/02 00:16:08;;;;;;;6.93;4.68;;;23.40;49.30;;;;;;352322;28;1264;-55
2023/10/02 00:16:19;;;;;;;7.02;4.58;;;23.40;49.30;;;;;;352401;28;1207;-54
2023/10/02 00:16:31;;;;;;;7.37;4.80;;;23.40;49.30;;;;;;352349;28;1038;-54
2023/10/02 00:16:42;;;;;;;6.88;4.78;;;23.40;49.30;;;;;;352351;28;1027;-53
2023/10/02 00:17:03;;;;;;;6.88;4.70;;;23.40;49.30;;;;;;352395;28;1348;-54
2023/10/02 00:17:15;;;;;;;7.63;4.93;;;23.40;49.30;;;;;;352379;28;991;-54
2023/10/02 00:17:26;;;;;;;7.68;4.85;;;23.40;49.30;;;;;;352275;28;1653;-55
2023/10/02 00:17:37;;;;;;;7.10;4.65;;;23.40;49.30;;;;;;352440;28;1066;-54
2023/10/02 00:17:48;;;;;;;7.00;4.50;;;23.40;49.30;;;;;;352456;28;860;-54
2023/10/02 00:17:59;;;;;;;7.07;4.60;;;23.40;49.30;;;;;;352448;28;1102;-54
2023/10/02 00:18:10;;;;;;;10.73;4.80;;;23.40;49.30;;;;;;352296;28;937;-55
2023/10/02 00:18:20;;;;;;;11.13;4.77;;;23.40;49.30;;;;;;352399;28;951;-54
2023/10/02 00:18:31;;;;;;;10.43;4.80;;;23.40;49.30;;;;;;352342;28;1015;-55
2023/10/02 00:18:42;;;;;;;7.50;4.70;;;23.40;49.30;;;;;;352336;28;1119;-54
2023/10/02 00:18:54;;;;;;;8.85;4.80;;;23.40;49.30;;;;;;352392;28;981;-54
2023/10/02 00:19:22;;;;;;;9.98;5.00;;;23.40;49.30;;;;;;352389;28;1110;-55
2023/10/02 00:19:38;;;;;;;9.02;4.75;;;23.40;49.30;;;;;;352387;28;1030;-56
2023/10/02 00:19:57;;;;;;;9.52;4.80;;;23.40;49.30;;;;;;352254;28;1242;-55
2023/10/02 00:20:15;;;;;;;7.32;4.68;;;23.40;49.30;;;;;;352415;28;1273;-54
2023/10/02 00:20:26;;;;;;;7.15;4.68;;;23.40;49.30;;;;;;352303;28;1910;-54
2023/10/02 00:20:38;;;;;;;7.88;4.63;;;23.40;49.40;;;;;;352357;28;1085;-54
2023/10/02 00:21:17;;;;;;;7.82;4.53;;;23.30;49.40;;;;;;352451;28;777;-55
2023/10/02 00:21:22;;;;;;;6.65;4.10;;;23.40;49.40;;;;;;352306;28;1586;-54
2023/10/02 00:21:32;;;;;;;6.70;4.55;;;23.40;49.30;;;;;;352432;28;1050;-55
2023/10/02 00:21:43;;;;;;;7.65;4.85;;;23.40;49.30;;;;;;352415;28;733;-55
2023/10/02 00:22:05;;;;;;;8.87;4.87;;;23.40;49.30;;;;;;352387;28;1110;-54
2023/10/02 00:22:38;;;;;;;7.70;4.50;;;23.30;49.30;;;;;;352302;28;1018;-53
2023/10/02 00:22:50;;;;;;;6.93;4.50;;;23.30;49.30;;;;;;352443;28;995;-55
2023/10/02 00:23:01;;;;;;;7.30;4.28;;;23.40;49.30;;;;;;352431;28;884;-54
2023/10/02 00:23:15;;;;;;;8.38;4.13;;;23.30;49.30;;;;;;352299;28;1007;-55
2023/10/02 00:23:27;;;;;;;7.70;4.10;;;23.40;49.30;;;;;;352413;28;1679;-53
2023/10/02 00:23:59;;;;;;;7.75;4.25;;;23.30;49.30;;;;;;352408;28;890;-54
2023/10/02 00:24:08;;;;;;;7.53;4.40;;;23.30;49.30;;;;;;352248;28;1890;-55
2023/10/02 00:24:20;;;;;;;7.28;4.55;;;23.40;49.30;;;;;;352383;28;1043;-54
2023/10/02 00:24:32;;;;;;;7.43;4.50;;;23.30;49.20;;;;;;352349;28;841;-54
2023/10/02 00:24:47;;;;;;;7.53;4.20;;;23.30;49.30;;;;;;352340;28;1194;-54
2023/10/02 00:25:00;;;;;;;7.88;4.25;;;23.30;49.20;;;;;;352295;28;1177;-55
2023/10/02 00:25:22;;;;;;;7.80;4.45;;;23.30;49.20;;;;;;352500;28;896;-55
2023/10/02 00:25:51;;;;;;;6.40;4.65;;;23.30;49.10;;;;;;352395;28;1066;-55
2023/10/02 00:26:04;;;;;;;5.95;4.53;;;23.30;49.10;;;;;;352288;28;1143;-54
2023/10/02 00:26:17;;;;;;;8.05;4.80;;;23.30;49.10;;;;;;352449;28;730;-54
2023/10/02 00:26:28;;;;;;;9.27;4.70;;;23.30;49.10;;;;;;352393;28;912;-54
2023/10/02 00:26:39;;;;;;;8.13;4.53;;;23.30;49.00;;;;;;352313;28;1099;-55
2023/10/02 00:26:51;;;;;;;7.43;4.60;;;23.30;49.10;;;;;;352363;28;1502;-53
2023/10/02 00:27:03;;;;;;;6.50;4.40;;;23.30;49.00;;;;;;352412;28;975;-56
2023/10/02 00:27:14;;;;;;;6.03;4.22;;;23.30;49.00;;;;;;352328;28;1404;-54
2023/10/02 00:27:26;;;;;;;5.85;4.30;;;23.20;49.00;;;;;;352352;28;797;-54
2023/10/02 00:27:37;;;;;;;5.78;4.28;;;23.30;49.00;;;;;;352442;28;1039;-53
2023/10/02 00:27:51;;;;;;;5.43;4.28;;;23.20;48.90;;;;;;352310;28;1181;-54
2023/10/02 00:28:08;;;;;;;7.00;4.20;;;23.20;48.90;;;;;;352352;28;987;-55
2023/10/02 00:28:30;;;;;;;8.25;4.30;;;23.30;48.90;;;;;;352346;28;1055;-55
2023/10/02 00:28:41;;;;;;;8.10;4.50;;;23.20;48.90;;;;;;352366;28;1233;-54
2023/10/02 00:28:51;;;;;;;8.80;4.32;;;23.20;48.90;;;;;;352346;28;925;-55
2023/10/02 00:29:06;;;;;;;8.37;4.40;;;23.20;48.90;;;;;;352369;28;849;-53
2023/10/02 00:29:17;;;;;;;9.23;5.00;;;23.20;48.80;;;;;;352370;28;947;-54
2023/10/02 00:29:28;;;;;;;8.77;4.93;;;23.20;48.80;;;;;;352265;28;1134;-53
2023/10/02 00:30:00;;;;;;;8.82;4.68;;;23.20;48.80;;;;;;352357;28;995;-53
2023/10/02 00:30:13;;;;;;;7.53;5.07;;;23.20;48.80;;;;;;351878;28;1403;-55
2023/10/02 00:30:35;;;;;;;5.70;4.45;;;23.20;48.80;;;;;;352352;28;1135;-54
2023/10/02 00:30:48;;;;;;;8.95;4.28;;;23.20;48.70;;;;;;352206;28;1100;-55
2023/10/02 00:30:59;;;;;;;8.82;4.13;;;23.30;48.70;;;;;;352414;28;1129;-54
2023/10/02 00:31:32;;;;;;;7.55;4.22;;;23.20;48.70;;;;;;352308;28;1461;-55
2023/10/02 00:31:46;;;;;;;8.43;4.88;;;23.20;48.70;;;;;;352218;28;1720;-53
2023/10/02 00:31:58;;;;;;;7.43;4.70;;;23.20;48.70;;;;;;352250;28;1126;-55
2023/10/02 00:32:12;;;;;;;6.25;4.43;;;23.20;48.70;;;;;;352423;28;781;-54
2023/10/02 00:32:26;;;;;;;6.93;4.65;;;23.20;48.70;;;;;;352464;28;832;-54
2023/10/02 00:32:40;;;;;;;6.80;4.70;;;23.20;48.70;;;;;;352331;28;1069;-54
2023/10/02 00:32:51;;;;;;;7.03;4.78;;;23.20;48.70;;;;;;352427;28;894;-55
2023/10/02 00:33:04;;;;;;;7.53;4.65;;;23.20;48.70;;;;;;352304;28;1100;-53
2023/10/02 00:33:27;;;;;;;6.80;4.50;;;23.20;48.70;;;;;;352302;28;1078;-54
2023/10/02 00:33:38;;;;;;;7.43;4.10;;;23.20;48.70;;;;;;352324;28;1023;-54
2023/10/02 00:33:50;;;;;;;7.72;4.10;;;23.20;48.80;;;;;;352247;28;1186;-54
2023/10/02 00:34:02;;;;;;;6.70;4.00;;;23.20;48.80;;;;;;352396;28;1324;-54
2023/10/02 00:34:15;;;;;;;6.32;4.05;;;23.20;48.80;;;;;;352448;28;1063;-56
2023/10/02 00:34:32;;;;;;;6.32;4.10;;;23.20;48.80;;;;;;352335;28;1050;-54
2023/10/02 00:34:43;;;;;;;7.32;4.22;;;23.20;48.70;;;;;;352416;28;1121;-55
2023/10/02 00:34:54;;;;;;;7.90;4.35;;;23.20;48.70;;;;;;352425;28;971;-54
2023/10/02 00:35:05;;;;;;;7.63;4.35;;;23.20;48.60;;;;;;352319;28;1009;-54
2023/10/02 00:35:16;;;;;;;6.47;4.28;;;23.20;48.60;;;;;;352449;28;726;-55
2023/10/02 00:35:30;;;;;;;5.57;4.10;;;23.20;48.60;;;;;;352371;28;1010;-53
2023/10/02 00:35:50;;;;;;;5.85;4.18;;;23.20;48.60;;;;;;352309;28;1054;-54
2023/10/02 00:36:02;;;;;;;7.65;4.00;;;23.20;48.60;;;;;;352260;28;1636;-54
2023/10/02 00:36:14;;;;;;;7.47;4.03;;;23.20;48.60;;;;;;352343;28;1027;-52
2023/10/02 00:36:24;;;;;;;5.47;4.22;;;23.20;48.70;;;;;;352476;28;1066;-55
2023/10/02 00:36:36;;;;;;;5.97;4.25;;;23.20;48.70;;;;;;352418;28;824;-53
2023/10/02 00:36:46;;;;;;;6.25;4.10;;;23.20;48.80;;;;;;352348;28;1003;-55
2023/10/02 00:37:08;;;;;;;6.72;4.30;;;23.20;48.70;;;;;;352298;28;1067;-55
2023/10/02 00:37:20;;;;;;;8.15;4.35;;;23.20;48.80;;;;;;352393;28;769;-54
2023/10/02 00:38:00;;;;;;;5.22;4.18;;;23.20;48.70;;;;;;352364;28;923;-54
2023/10/02 00:38:11;;;;;;;5.85;4.05;;;23.10;48.80;;;;;;352484;28;992;-56
2023/10/02 00:38:24;;;;;;;5.97;4.23;;;23.10;48.80;;;;;;352539;28;1222;-54
2023/10/02 00:38:35;;;;;;;7.78;3.90;;;23.10;48.80;;;;;;352711;27;930;-54
2023/10/02 00:38:50;;;;;;;8.48;3.90;;;23.10;48.80;;;;;;352729;28;717;-54
2023/10/02 00:39:24;;;;;;;7.03;4.00;;;23.10;48.80;;;;;;352591;28;2701;-53
2023/10/02 00:39:36;;;;;;;7.60;3.78;;;23.10;48.70;;;;;;352437;28;1788;-55
2023/10/02 00:39:52;;;;;;;6.47;3.80;;;23.10;48.80;;;;;;352541;28;1182;-53
2023/10/02 00:40:06;;;;;;;7.20;4.55;;;23.10;48.80;;;;;;352724;28;848;-53
2023/10/02 00:40:28;;;;;;;7.53;4.78;;;23.10;48.80;;;;;;352637;28;1050;-53
2023/10/02 00:40:39;;;;;;;7.90;5.03;;;23.10;48.80;;;;;;352665;28;1102;-54
2023/10/02 00:40:50;;;;;;;8.18;5.05;;;23.10;48.70;;;;;;352676;28;813;-54
2023/10/02 00:41:02;;;;;;;6.87;4.57;;;23.10;48.70;;;;;;352573;28;1055;-54
2023/10/02 00:41:12;;;;;;;6.82;4.60;;;23.10;48.70;;;;;;352648;28;1105;-54
2023/10/02 00:41:23;;;;;;;6.83;5.10;;;23.10;48.70;;;;;;352646;28;880;-53
2023/10/02 00:41:34;;;;;;;6.85;4.97;;;23.10;48.60;;;;;;352645;28;959;-54
2023/10/02 00:42:10;;;;;;;7.40;4.95;;;23.10;48.70;;;;;;352680;28;901;-54
2023/10/02 00:42:16;;;;;;;5.25;4.40;;;23.10;48.70;;;;;;352561;28;1997;-53
2023/10/02 00:42:28;;;;;;;5.82;4.40;;;23.10;48.70;;;;;;352595;27;1050;-54
2023/10/02 00:42:39;;;;;;;6.22;4.32;;;23.10;48.70;;;;;;352704;28;876;-55
2023/10/02 00:43:33;;;;;;;6.05;4.30;;;23.10;48.70;;;;;;352622;28;1020;-51
2023/10/02 00:43:45;;;;;;;6.03;4.50;;;23.10;48.70;;;;;;352633;28;1054;-54
2023/10/02 00:43:56;;;;;;;5.65;4.50;;;23.00;48.60;;;;;;352663;28;936;-54
2023/10/02 00:44:07;;;;;;;5.07;4.30;;;23.10;48.60;;;;;;352700;28;1015;-55
2023/10/02 00:44:17;;;;;;;5.50;4.50;;;23.00;48.60;;;;;;352584;28;869;-54
2023/10/02 00:44:51;;;;;;;5.30;4.30;;;23.10;48.60;;;;;;352439;28;1498;-53
2023/10/02 00:45:01;;;;;;;6.05;4.05;;;23.00;48.50;;;;;;352295;28;1513;-54
2023/10/02 00:45:13;;;;;;;6.10;3.83;;;23.00;48.60;;;;;;352456;28;1039;-54
2023/10/02 00:45:29;;;;;;;6.25;3.70;;;23.00;48.50;;;;;;352617;28;999;-54
2023/10/02 00:45:40;;;;;;;6.65;4.03;;;23.00;48.60;;;;;;352487;28;1369;-53
2023/10/02 00:45:58;;;;;;;8.63;4.28;;;23.00;48.60;;;;;;352498;28;1035;-53
2023/10/02 00:46:23;;;;;;;9.60;4.50;;;23.00;48.50;;;;;;352495;28;1509;-54
2023/10/02 00:46:42;;;;;;;6.20;4.47;;;23.00;48.60;;;;;;352643;28;1078;-53
2023/10/02 00:46:53;;;;;;;6.10;4.43;;;23.00;48.50;;;;;;352618;28;1147;-54
2023/10/02 00:47:05;;;;;;;6.30;4.30;;;23.00;48.40;;;;;;352664;28;844;-53
2023/10/02 00:47:35;;;;;;;6.47;4.20;;;23.00;48.40;;;;;;352661;28;1259;-56
2023/10/02 00:47:47;;;;;;;5.40;4.44;;;23.00;48.40;;;;;;352600;28;1035;-54
2023/10/02 00:48:28;;;;;;;5.18;4.03;;;22.90;48.40;;;;;;352661;28;781;-55
2023/10/02 00:48:39;;;;;;;4.50;3.92;;;22.90;48.30;;;;;;352614;27;979;-54
2023/10/02 00:48:51;;;;;;;5.25;3.65;;;23.00;48.30;;;;;;352608;28;1134;-54
2023/10/02 00:49:23;;;;;;;6.68;3.70;;;23.00;48.30;;;;;;352721;28;1133;-54
2023/10/02 00:49:35;;;;;;;8.38;4.88;;;22.90;48.30;;;;;;352380;28;2144;-54
2023/10/02 00:49:49;;;;;;;8.43;5.15;;;22.90;48.30;;;;;;352684;28;1058;-54
2023/10/02 00:50:21;;;;;;;5.95;4.13;;;22.90;48.30;;;;;;352545;28;1460;-55
2023/10/02 00:50:48;;;;;;;5.55;3.92;;;22.90;48.30;;;;;;352632;28;1083;-55
2023/10/02 00:51:05;;;;;;;5.18;3.75;;;22.90;48.30;;;;;;352591;28;1123;-54
2023/10/02 00:51:16;;;;;;;5.47;4.00;;;22.90;48.30;;;;;;352726;28;952;-54
2023/10/02 00:51:27;;;;;;;5.80;4.15;;;22.90;48.30;;;;;;352589;28;1090;-54
2023/10/02 00:51:38;;;;;;;7.27;4.30;;;22.90;48.20;;;;;;352652;28;833;-54
2023/10/02 00:52:00;;;;;;;8.05;4.18;;;22.90;48.20;;;;;;352596;28;1028;-54
2023/10/02 00:52:11;;;;;;;6.57;4.15;;;22.90;48.10;;;;;;352589;28;1047;-54
2023/10/02 00:52:21;;;;;;;5.07;4.05;;;22.90;48.20;;;;;;352682;28;690;-54
2023/10/02 00:52:33;;;;;;;6.05;4.10;;;22.90;48.20;;;;;;352678;28;753;-54
2023/10/02 00:52:50;;;;;;;5.82;4.28;;;22.90;48.20;;;;;;352602;28;1696;-55
2023/10/02 00:53:04;;;;;;;5.25;4.47;;;22.80;48.20;;;;;;352645;28;1106;-55
2023/10/02 00:53:19;;;;;;;5.47;4.25;;;22.80;48.20;;;;;;352700;28;1251;-54
2023/10/02 00:53:46;;;;;;;6.05;3.90;;;22.90;48.10;;;;;;352678;28;1082;-53
2023/10/02 00:54:23;;;;;;;5.97;3.83;;;22.90;48.10;;;;;;352650;28;788;-54
2023/10/02 00:54:27;;;;;;;5.30;3.60;;;22.90;48.20;;;;;;352385;28;1805;-54
2023/10/02 00:54:39;;;;;;;5.55;3.50;;;22.80;48.10;;;;;;352603;28;984;-54
2023/10/02 00:54:50;;;;;;;5.95;3.70;;;22.90;48.10;;;;;;352671;28;880;-54
2023/10/02 00:55:05;;;;;;;5.70;4.10;;;22.80;48.10;;;;;;352614;28;1051;-54
2023/10/02 00:55:21;;;;;;;5.82;4.38;;;22.80;48.10;;;;;;352647;28;1077;-55
2023/10/02 00:55:33;;;;;;;5.80;3.95;;;22.80;48.10;;;;;;352668;28;776;-54
2023/10/02 00:55:44;;;;;;;4.80;3.80;;;22.80;48.00;;;;;;352729;28;754;-54
2023/10/02 00:55:55;;;;;;;4.57;3.92;;;22.80;48.00;;;;;;352739;28;994;-54
2023/10/02 00:56:19;;;;;;;5.57;4.05;;;22.80;48.00;;;;;;352601;28;1017;-54
2023/10/02 00:56:30;;;;;;;8.75;4.57;;;22.80;48.00;;;;;;352636;28;1078;-55
2023/10/02 00:56:41;;;;;;;7.60;4.45;;;22.80;48.10;;;;;;352727;28;998;-54
2023/10/02 00:56:52;;;;;;;6.68;4.22;;;22.80;48.10;;;;;;352598;28;992;-54
2023/10/02 00:57:16;;;;;;;5.50;4.40;;;22.80;48.10;;;;;;352669;28;1771;-55
2023/10/02 00:57:28;;;;;;;6.65;5.13;;;22.80;48.10;;;;;;352578;28;1161;-54
2023/10/02 00:57:41;;;;;;;6.47;5.30;;;22.80;48.10;;;;;;352563;28;1146;-53
2023/10/02 00:57:56;;;;;;;6.55;5.00;;;22.80;48.10;;;;;;352620;28;1364;-58
2023/10/02 00:58:08;;;;;;;6.68;4.57;;;22.80;48.00;;;;;;352691;28;899;-53
2023/10/02 00:58:19;;;;;;;7.00;4.55;;;22.70;48.00;;;;;;352652;28;986;-54
2023/10/02 00:58:31;;;;;;;6.17;4.33;;;22.80;48.00;;;;;;352604;28;920;-54
2023/10/02 00:58:44;;;;;;;7.05;4.22;;;22.80;48.00;;;;;;352583;28;1142;-53
2023/10/02 00:59:14;;;;;;;6.97;4.05;;;22.80;48.00;;;;;;352629;28;1150;-54
2023/10/02 00:59:25;;;;;;;5.50;4.32;;;22.80;48.00;;;;;;352604;28;1294;-54
2023/10/02 00:59:37;;;;;;;5.93;4.50;;;22.70;48.10;;;;;;352687;28;1046;-54
2023/10/02 00:59:59;;;;;;;5.47;4.35;;;22.70;48.10;;;;;;352665;28;959;-54
2023/10/02 01:00:30;;;;;;;5.30;4.03;;;22.70;48.10;;;;;;352502;28;1144;-54
2023/10/02 01:00:50;;;;;;;5.18;3.88;;;22.70;48.10;;;;;;352732;28;1050;-54
2023/10/02 01:01:03;;;;;;;5.30;3.70;;;22.70;48.20;;;;;;352649;27;1014;-55
2023/10/02 01:01:14;;;;;;;5.78;4.00;;;22.70;48.20;;;;;;352679;28;1065;-54
2023/10/02 01:01:31;;;;;;;5.82;4.03;;;22.70;48.30;;;;;;352716;28;1920;-54
2023/10/02 01:01:44;;;;;;;5.78;4.00;;;22.70;48.30;;;;;;352612;28;1923;-54
2023/10/02 01:01:56;;;;;;;5.75;4.13;;;22.70;48.30;;;;;;352686;28;1054;-54
2023/10/02 01:02:11;;;;;;;5.22;3.88;;;22.70;48.30;;;;;;352612;28;981;-55
2023/10/02 01:02:23;;;;;;;5.38;3.75;;;22.70;48.30;;;;;;352651;28;753;-55
2023/10/02 01:02:39;;;;;;;6.80;3.90;;;22.70;48.40;;;;;;352682;28;1062;-54
2023/10/02 01:02:57;;;;;;;7.47;3.95;;;22.70;48.40;;;;;;352607;28;1216;-54
2023/10/02 01:03:09;;;;;;;6.53;4.05;;;22.70;48.50;;;;;;352617;28;1010;-54
2023/10/02 01:03:22;;;;;;;5.18;3.85;;;22.70;48.50;;;;;;352624;28;1054;-54
2023/10/02 01:04:06;;;;;;;5.88;3.85;;;22.60;48.60;;;;;;352643;28;939;-54
2023/10/02 01:04:10;;;;;;;7.75;4.03;;;22.70;48.60;;;;;;352525;28;1062;-55
2023/10/02 01:04:29;;;;;;;5.85;3.67;;;22.60;48.60;;;;;;352706;28;1030;-54
2023/10/02 01:04:42;;;;;;;4.63;3.53;;;22.60;48.70;;;;;;352563;28;1012;-53
2023/10/02 01:04:56;;;;;;;5.00;3.70;;;22.60;48.70;;;;;;352657;28;1042;-54
2023/10/02 01:05:14;;;;;;;4.97;3.90;;;22.60;48.60;;;;;;352614;28;971;-53
2023/10/02 01:05:41;;;;;;;6.75;4.00;;;22.60;48.50;;;;;;352648;28;1133;-54
2023/10/02 01:05:54;;;;;;;6.70;4.03;;;22.60;48.50;;;;;;352693;28;1118;-54
2023/10/02 01:06:05;;;;;;;6.55;4.10;;;22.60;48.40;;;;;;352601;28;1082;-54
2023/10/02 01:06:16;;;;;;;6.70;4.00;;;22.60;48.30;;;;;;352571;28;1926;-53
2023/10/02 01:06:27;;;;;;;5.95;3.90;;;22.60;48.40;;;;;;352597;28;983;-54
2023/10/02 01:07:04;;;;;;;5.97;3.90;;;22.60;48.30;;;;;;352550;28;1093;-53
2023/10/02 01:07:15;;;;;;;6.15;3.78;;;22.60;48.40;;;;;;352626;28;1130;-54
2023/10/02 01:07:26;;;;;;;6.47;3.83;;;22.60;48.30;;;;;;352688;28;1062;-55
2023/10/02 01:07:38;;;;;;;6.03;3.50;;;22.60;48.30;;;;;;352579;28;860;-54
2023/10/02 01:07:54;;;;;;;4.57;3.28;;;22.60;48.40;;;;;;352630;28;1011;-54
2023/10/02 01:08:05;;;;;;;5.18;3.60;;;22.60;48.30;;;;;;352721;28;1101;-54
2023/10/02 01:08:42;;;;;;;5.80;3.83;;;22.60;48.40;;;;;;352620;28;919;-54
2023/10/02 01:08:54;;;;;;;4.57;3.42;;;22.50;48.30;;;;;;352607;28;1139;-56
2023/10/02 01:09:04;;;;;;;5.60;3.45;;;22.50;48.30;;;;;;352693;28;1003;-53
2023/10/02 01:09:18;;;;;;;4.90;3.40;;;22.50;48.30;;;;;;352610;28;1759;-54
2023/10/02 01:09:30;;;;;;;5.10;3.53;;;22.60;48.30;;;;;;352611;28;995;-54
2023/10/02 01:09:41;;;;;;;4.90;3.50;;;22.60;48.30;;;;;;352610;28;1601;-54
2023/10/02 01:10:08;;;;;;;5.93;3.67;;;22.50;48.30;;;;;;352629;28;920;-53
2023/10/02 01:10:19;;;;;;;5.50;3.72;;;22.60;48.40;;;;;;352522;28;905;-53
2023/10/02 01:10:30;;;;;;;4.75;3.60;;;22.50;48.30;;;;;;352627;27;1069;-54
2023/10/02 01:10:41;;;;;;;5.57;3.65;;;22.50;48.30;;;;;;352642;28;1027;-54
2023/10/02 01:10:57;;;;;;;6.97;3.72;;;22.50;48.40;;;;;;352610;28;1089;-54
2023/10/02 01:11:08;;;;;;;6.82;3.90;;;22.50;48.30;;;;;;352617;28;1069;-54
2023/10/02 01:11:20;;;;;;;5.55;3.67;;;22.50;48.40;;;;;;352593;28;1018;-55
2023/10/02 01:11:34;;;;;;;5.15;3.60;;;22.50;48.40;;;;;;352610;28;1197;-54
2023/10/02 01:11:45;;;;;;;7.55;3.92;;;22.50;48.40;;;;;;352635;28;1201;-54
2023/10/02 01:11:57;;;;;;;8.15;4.05;;;22.40;48.40;;;;;;352572;28;1063;-54
2023/10/02 01:12:10;;;;;;;7.03;3.70;;;22.50;48.40;;;;;;352598;28;1401;-54
2023/10/02 01:12:38;;;;;;;5.10;3.50;;;22.50;48.40;;;;;;352576;28;1837;-54
2023/10/02 01:12:53;;;;;;;5.15;3.58;;;22.40;48.40;;;;;;352628;28;1078;-54
2023/10/02 01:13:05;;;;;;;5.88;3.70;;;22.50;48.40;;;;;;352537;28;1699;-53
2023/10/02 01:13:17;;;;;;;6.60;3.75;;;22.50;48.50;;;;;;352707;28;987;-53
2023/10/02 01:13:34;;;;;;;6.15;3.83;;;22.40;48.50;;;;;;352681;28;1054;-54
2023/10/02 01:13:46;;;;;;;5.28;3.65;;;22.40;48.50;;;;;;352530;28;1121;-53
2023/10/02 01:13:57;;;;;;;5.85;3.50;;;22.40;48.40;;;;;;352600;28;1115;-54
2023/10/02 01:14:09;;;;;;;6.38;3.50;;;22.40;48.50;;;;;;352616;28;991;-54
2023/10/02 01:14:40;;;;;;;6.57;3.40;;;22.40;48.50;;;;;;352613;28;956;-54
2023/10/02 01:14:51;;;;;;;6.38;3.50;;;22.40;48.50;;;;;;352470;28;1293;-53
2023/10/02 01:15:06;;;;;;;6.65;3.65;;;22.40;48.50;;;;;;352573;28;1901;-53
2023/10/02 01:15:22;;;;;;;5.43;3.55;;;22.40;48.50;;;;;;352709;28;915;-54
2023/10/02 01:15:34;;;;;;;4.63;3.42;;;22.40;48.50;;;;;;352636;28;999;-53
2023/10/02 01:15:46;;;;;;;5.07;3.47;;;22.40;48.60;;;;;;352618;28;2277;-54
2023/10/02 01:16:00;;;;;;;5.57;3.58;;;22.40;48.60;;;;;;352680;28;911;-54
2023/10/02 01:16:13;;;;;;;5.38;3.58;;;22.40;48.60;;;;;;352540;28;1240;-53
2023/10/02 01:16:24;;;;;;;5.47;3.53;;;22.40;48.60;;;;;;352678;28;1113;-54
2023/10/02 01:16:36;;;;;;;6.05;3.53;;;22.40;48.60;;;;;;352688;28;987;-53
2023/10/02 01:16:50;;;;;;;5.43;3.58;;;22.40;48.70;;;;;;352522;28;1046;-54
2023/10/02 01:17:02;;;;;;;4.57;3.40;;;22.40;48.70;;;;;;352662;28;967;-54
2023/10/02 01:17:23;;;;;;;5.07;3.40;;;22.40;48.60;;;;;;352569;28;1629;-54
2023/10/02 01:17:34;;;;;;;7.05;3.40;;;22.40;48.60;;;;;;352577;28;1047;-53
2023/10/02 01:17:50;;;;;;;7.97;3.55;;;22.30;48.70;;;;;;352511;28;1138;-55
2023/10/02 01:18:21;;;;;;;6.85;3.50;;;22.30;48.70;;;;;;352667;28;1050;-54
2023/10/02 01:18:33;;;;;;;4.75;3.20;;;22.30;48.60;;;;;;352411;28;1540;-54
2023/10/02 01:18:48;;;;;;;4.60;3.35;;;22.30;48.70;;;;;;352624;28;1067;-54
2023/10/02 01:18:58;;;;;;;7.22;3.72;;;22.30;48.60;;;;;;352529;28;1093;-53
2023/10/02 01:19:11;;;;;;;7.28;3.70;;;22.30;48.60;;;;;;352591;28;1083;-54
2023/10/02 01:19:24;;;;;;;7.70;3.70;;;22.30;48.70;;;;;;352664;28;1058;-54
2023/10/02 01:20:21;;;;;;;5.82;3.50;;;22.30;48.70;;;;;;352511;28;986;-53
2023/10/02 01:20:41;;;;;;;4.05;3.22;;;22.30;48.70;;;;;;349491;28;1205;-54
2023/10/02 01:20:53;;;;;;;5.30;3.70;;;22.30;48.70;;;;;;351189;28;1632;-54
2023/10/02 01:21:11;;;;;;;5.03;3.70;;;22.30;48.80;;;;;;352650;28;891;-54
2023/10/02 01:21:24;;;;;;;4.07;3.28;;;22.30;48.80;;;;;;352641;27;1382;-53
2023/10/02 01:21:37;;;;;;;5.75;3.50;;;22.30;48.80;;;;;;352588;28;1050;-54
2023/10/02 01:21:48;;;;;;;7.60;3.90;;;22.40;48.80;;;;;;352588;28;1114;-54
2023/10/02 01:22:00;;;;;;;8.10;3.72;;;22.30;48.80;;;;;;352527;28;1603;-55
2023/10/02 01:22:26;;;;;;;6.20;3.55;;;22.30;48.80;;;;;;352572;28;942;-54
2023/10/02 01:22:43;;;;;;;5.65;3.55;;;22.30;48.80;;;;;;352535;27;798;-54
2023/10/02 01:22:56;;;;;;;5.80;3.50;;;22.30;48.90;;;;;;352647;28;991;-53
2023/10/02 01:23:16;;;;;;;5.07;3.40;;;22.30;48.80;;;;;;352568;28;1027;-54
2023/10/02 01:23:31;;;;;;;4.32;3.60;;;22.30;48.90;;;;;;352597;28;1474;-53
2023/10/02 01:24:17;;;;;;;4.65;3.40;;;22.30;48.90;;;;;;352452;28;1025;-58
2023/10/02 01:24:28;;;;;;;5.27;3.40;;;22.30;49.00;;;;;;352602;28;927;-54
2023/10/02 01:24:39;;;;;;;5.60;3.38;;;22.30;49.00;;;;;;352627;28;1011;-54